KMKE/MKE METAR and TAF weather

Enter ICAO airport designator
Station Type Date Time Source
KMKE METAR 2019/10/21 05:05 UTC NOAA

KMKE 210505Z 08008KT 3/4SM R01L/2800V4500FT BR OVC001 09/08 A2992 RMK AO2 SFC VIS 1 1/2 T00890078 $


Station Type Date Time Source
KMKE Decoded METAR 2019/10/21 05:05 UTC NOAA

GEN MITCHELL INTERNATIONAL AIRPORT, WI, United States (KMKE) 42-57N 87-54W 206M
Oct 21, 2019 - 01:05 AM EDT / 2019.10.21 0505 UTC
Wind: from the E (080 degrees) at 9 MPH (8 KT) (direction variable):0
Visibility: 3/4 mile(s):0
Sky conditions: overcast
Weather: mist
Temperature: 48.0 F (8.9 C)
Dew Point: 46.0 F (7.8 C)
Relative Humidity: 92%
Pressure (altimeter): 29.92 in. Hg (1013 hPa)
ob: KMKE 210505Z 08008KT 3/4SM R01L/2800V4500FT BR OVC001 09/08 A2992 RMK AO2 SFC VIS 1 1/2 T00890078
cycle: 5

Station Type Date Time Source
KMKE TAF 2019/10/21 02:33 UTC NOAA

TAF
AMD KMKE 210130Z 2102/2206 11005KT 1SM BR OVC002
FM210600 13008KT 2SM BR BKN006
FM210900 12009KT 6SM BR OVC013
FM211500 14017KT 4SM SHRA BR OVC022 WS020/14050KT
FM211800 16018G30KT 5SM -SHRA BR OVC008 WS020/16055KT
FM212000 18016G28KT 6SM -SHRA BKN016
FM212100 20014G26KT P6SM BKN040

Example: see airport list